Time;durP1;ratioP1;P1;durP2;ratioP2;P2;SDS_P1;SDS_P2;PMS_P1;PMS_P2;Temp;Humidity;BMP_temperature;BMP_pressure;BME280_temperature;BME280_humidity;BME280_pressure;Samples;Min_cycle;Max_cycle;Signal;HPM_P1;HPM_P2
2021/06/08 00:00:28;;;;;;;3.90;1.67;;;;;;;;;;7088128;28;20108;-77
2021/06/08 00:03:48;;;;;;;2.20;1.50;;;;;;;;;;7090557;28;20043;-77
2021/06/08 00:07:09;;;;;;;3.15;1.65;;;;;;;;;;7072029;27;20043;-78
2021/06/08 00:10:29;;;;;;;3.55;1.52;;;;;;;;;;7089430;28;20054;-79
2021/06/08 00:13:50;;;;;;;2.65;1.83;;;;;;;;;;7090253;28;20481;-77
2021/06/08 00:17:10;;;;;;;4.65;1.83;;;;;;;;;;7089982;28;20047;-78
2021/06/08 00:20:31;;;;;;;2.65;1.85;;;;;;;;;;7090450;28;20045;-77
2021/06/08 00:23:51;;;;;;;2.60;1.35;;;;;;;;;;7090238;28;20069;-79
2021/06/08 00:27:11;;;;;;;2.60;1.42;;;;;;;;;;7089967;28;20051;-77
2021/06/08 00:30:32;;;;;;;8.80;2.08;;;;;;;;;;7089526;28;20043;-78
2021/06/08 00:33:53;;;;;;;7.32;2.00;;;;;;;;;;7089995;28;20049;-77
2021/06/08 00:37:14;;;;;;;2.42;1.65;;;;;;;;;;7089788;28;20058;-77
2021/06/08 00:40:34;;;;;;;6.50;1.70;;;;;;;;;;7088855;28;20086;-77
2021/06/08 00:43:55;;;;;;;6.10;1.90;;;;;;;;;;7089567;28;20047;-78
2021/06/08 00:47:15;;;;;;;5.30;1.98;;;;;;;;;;7089112;28;20050;-77
2021/06/08 00:50:36;;;;;;;4.72;1.33;;;;;;;;;;7073941;28;20039;-77
2021/06/08 00:53:59;;;;;;;6.80;1.98;;;;;;;;;;7088895;28;20051;-77
2021/06/08 00:57:19;;;;;;;6.53;1.80;;;;;;;;;;7089424;28;20051;-78
2021/06/08 01:00:40;;;;;;;5.10;1.73;;;;;;;;;;7087630;28;20058;-81
2021/06/08 01:04:08;;;;;;;5.97;1.83;;;;;;;;;;7068265;28;20494;-76
2021/06/08 01:07:28;;;;;;;6.38;1.90;;;;;;;;;;7086891;28;20414;-77
2021/06/08 01:10:49;;;;;;;2.92;1.60;;;;;;;;;;7088637;28;20532;-78
2021/06/08 01:14:09;;;;;;;3.30;1.73;;;;;;;;;;7088805;28;20051;-78
2021/06/08 01:17:29;;;;;;;7.80;1.80;;;;;;;;;;7088995;28;20043;-77
2021/06/08 01:21:10;;;;;;;4.95;2.10;;;;;;;;;;7088338;27;20039;-76
2021/06/08 01:24:30;;;;;;;3.88;1.90;;;;;;;;;;7095210;22;20444;-77
2021/06/08 01:27:51;;;;;;;2.90;1.95;;;;;;;;;;7030005;28;20048;-75
2021/06/08 01:31:14;;;;;;;3.33;1.65;;;;;;;;;;7010439;28;20055;-76
2021/06/08 01:34:35;;;;;;;4.30;1.92;;;;;;;;;;7030378;28;20071;-77
2021/06/08 01:37:55;;;;;;;3.92;1.80;;;;;;;;;;7030427;28;20059;-76
2021/06/08 01:41:19;;;;;;;3.22;1.85;;;;;;;;;;7030426;28;20044;-75
2021/06/08 01:44:42;;;;;;;6.95;1.80;;;;;;;;;;7029041;28;20094;-76
2021/06/08 01:48:03;;;;;;;2.28;1.50;;;;;;;;;;7027867;28;20521;-75
2021/06/08 01:51:38;;;;;;;2.92;1.85;;;;;;;;;;7035590;28;20052;-75
2021/06/08 01:55:10;;;;;;;6.90;1.58;;;;;;;;;;7028708;28;20483;-76
2021/06/08 01:58:40;;;;;;;2.92;1.58;;;;;;;;;;7010321;28;20071;-76
2021/06/08 02:02:22;;;;;;;5.53;1.73;;;;;;;;;;7029581;28;20047;-76
2021/06/08 02:05:52;;;;;;;4.45;1.98;;;;;;;;;;7014914;28;20070;-76
2021/06/08 02:09:17;;;;;;;1.70;1.40;;;;;;;;;;7032926;28;20151;-76
2021/06/08 02:12:37;;;;;;;3.42;1.95;;;;;;;;;;7030180;28;20051;-76
2021/06/08 02:16:20;;;;;;;2.30;1.70;;;;;;;;;;7012186;28;20048;-76
2021/06/08 02:19:42;;;;;;;4.68;1.73;;;;;;;;;;7030002;28;20048;-77
2021/06/08 02:23:06;;;;;;;2.15;1.70;;;;;;;;;;7015742;28;20043;-76
2021/06/08 02:26:27;;;;;;;2.08;1.58;;;;;;;;;;7037405;28;20044;-75
2021/06/08 02:29:48;;;;;;;12.63;1.67;;;;;;;;;;7029874;28;20051;-76
2021/06/08 02:33:09;;;;;;;3.35;1.50;;;;;;;;;;7033485;28;20075;-77
2021/06/08 02:36:30;;;;;;;2.47;1.77;;;;;;;;;;7016134;28;20044;-76
2021/06/08 02:39:51;;;;;;;1.55;1.27;;;;;;;;;;7034427;28;20177;-76
2021/06/08 02:43:12;;;;;;;2.05;1.60;;;;;;;;;;7034278;28;20490;-77
2021/06/08 02:46:32;;;;;;;2.50;1.77;;;;;;;;;;7016745;28;20494;-77
2021/06/08 02:49:53;;;;;;;9.93;1.48;;;;;;;;;;7051292;28;20052;-78
2021/06/08 02:53:15;;;;;;;2.03;1.55;;;;;;;;;;7030640;28;20036;-77
2021/06/08 02:56:36;;;;;;;6.78;1.98;;;;;;;;;;7028993;28;20054;-77
2021/06/08 03:00:02;;;;;;;2.38;1.58;;;;;;;;;;7002465;28;20383;-77
2021/06/08 03:03:35;;;;;;;3.92;1.83;;;;;;;;;;7034580;28;20048;-78
2021/06/08 03:06:59;;;;;;;2.45;1.70;;;;;;;;;;6990938;28;20052;-77
2021/06/08 03:10:20;;;;;;;2.13;1.88;;;;;;;;;;7002436;28;20071;-78
2021/06/08 03:13:41;;;;;;;6.30;1.63;;;;;;;;;;7020909;28;20395;-78
2021/06/08 03:17:02;;;;;;;2.97;1.40;;;;;;;;;;7017089;28;20475;-77
2021/06/08 03:20:28;;;;;;;1.70;1.60;;;;;;;;;;7034884;28;20052;-77
2021/06/08 03:23:54;;;;;;;3.05;1.48;;;;;;;;;;7015973;28;20048;-77
2021/06/08 03:27:15;;;;;;;9.93;1.50;;;;;;;;;;7016160;28;20146;-77
2021/06/08 03:30:36;;;;;;;3.03;1.55;;;;;;;;;;7015850;28;20048;-77
2021/06/08 03:33:57;;;;;;;2.00;1.40;;;;;;;;;;6989742;28;20074;-77
2021/06/08 03:37:19;;;;;;;1.73;1.48;;;;;;;;;;7008412;28;20048;-76
2021/06/08 03:40:40;;;;;;;3.92;1.63;;;;;;;;;;7018954;28;20062;-77
2021/06/08 03:44:01;;;;;;;2.92;1.67;;;;;;;;;;7033679;28;20048;-76
2021/06/08 03:47:21;;;;;;;2.38;1.60;;;;;;;;;;7015344;28;20044;-81
2021/06/08 03:50:44;;;;;;;2.58;1.48;;;;;;;;;;6995838;28;20048;-75
2021/06/08 03:54:04;;;;;;;2.30;1.35;;;;;;;;;;7056089;28;20052;-76
2021/06/08 03:57:29;;;;;;;2.20;1.50;;;;;;;;;;7038208;28;20044;-76
2021/06/08 04:00:55;;;;;;;1.50;1.40;;;;;;;;;;7015101;28;20128;-76
2021/06/08 04:04:16;;;;;;;1.52;1.42;;;;;;;;;;7032460;28;20135;-75
2021/06/08 04:07:40;;;;;;;3.85;1.58;;;;;;;;;;7040535;28;20044;-75
2021/06/08 04:11:01;;;;;;;2.47;1.48;;;;;;;;;;7018485;28;20044;-76
2021/06/08 04:14:22;;;;;;;1.73;1.38;;;;;;;;;;7046598;28;20047;-76
2021/06/08 04:17:43;;;;;;;2.00;1.30;;;;;;;;;;7007148;28;20103;-77
2021/06/08 04:21:04;;;;;;;3.25;1.35;;;;;;;;;;7032804;28;20048;-76
2021/06/08 04:24:24;;;;;;;2.13;1.60;;;;;;;;;;7032221;28;20052;-76
2021/06/08 04:27:45;;;;;;;1.50;1.40;;;;;;;;;;7032700;28;20402;-77
2021/06/08 04:31:05;;;;;;;4.85;1.42;;;;;;;;;;7032166;28;20071;-76
2021/06/08 04:34:25;;;;;;;3.28;1.50;;;;;;;;;;7032047;28;20052;-75
2021/06/08 04:37:47;;;;;;;2.08;1.40;;;;;;;;;;7031822;28;20076;-77
2021/06/08 04:41:07;;;;;;;1.50;1.40;;;;;;;;;;7046474;28;20045;-77
2021/06/08 04:44:28;;;;;;;1.70;1.50;;;;;;;;;;7046216;28;20040;-77
2021/06/08 04:47:48;;;;;;;1.92;1.30;;;;;;;;;;7031513;28;20043;-77
2021/06/08 04:51:09;;;;;;;1.88;1.60;;;;;;;;;;7031676;28;20074;-78
2021/06/08 04:54:30;;;;;;;3.75;1.50;;;;;;;;;;7031861;28;20052;-77
2021/06/08 04:57:52;;;;;;;1.52;1.40;;;;;;;;;;7043589;28;20494;-77
2021/06/08 05:01:51;;;;;;;2.08;1.50;;;;;;;;;;7032323;28;20051;-77
2021/06/08 05:05:22;;;;;;;1.35;1.25;;;;;;;;;;6968761;28;20061;-79
2021/06/08 05:09:16;;;;;;;1.75;1.40;;;;;;;;;;6956946;28;20040;-77
2021/06/08 05:12:40;;;;;;;1.60;1.50;;;;;;;;;;6966370;28;20380;-77
2021/06/08 05:16:05;;;;;;;2.60;1.75;;;;;;;;;;6971370;28;20053;-77
2021/06/08 05:19:26;;;;;;;1.40;1.30;;;;;;;;;;6957605;28;20045;-78
2021/06/08 05:22:47;;;;;;;2.08;1.60;;;;;;;;;;6954193;28;20049;-79
2021/06/08 05:26:07;;;;;;;1.70;1.40;;;;;;;;;;6973090;28;20122;-78
2021/06/08 05:29:28;;;;;;;2.15;1.63;;;;;;;;;;6973398;28;20482;-77
2021/06/08 05:32:48;;;;;;;1.20;1.20;;;;;;;;;;6973525;28;20049;-78
2021/06/08 05:36:09;;;;;;;2.85;2.47;;;;;;;;;;6993375;28;20048;-78
2021/06/08 05:39:35;;;;;;;2.50;2.28;;;;;;;;;;7031674;28;20560;-77
2021/06/08 05:42:56;;;;;;;2.50;2.30;;;;;;;;;;7031948;28;20475;-77
2021/06/08 05:46:16;;;;;;;6.45;5.93;;;;;;;;;;7032206;28;20055;-77
2021/06/08 05:49:38;;;;;;;6.70;6.20;;;;;;;;;;7031313;28;20044;-79
2021/06/08 05:53:00;;;;;;;5.78;5.20;;;;;;;;;;7045972;28;20126;-78
2021/06/08 05:56:21;;;;;;;1.90;1.70;;;;;;;;;;7034351;28;20063;-77
2021/06/08 05:59:42;;;;;;;3.63;1.60;;;;;;;;;;7008315;28;20056;-77
2021/06/08 06:03:02;;;;;;;2.05;1.85;;;;;;;;;;7044037;28;20089;-77
2021/06/08 06:06:24;;;;;;;2.72;1.52;;;;;;;;;;7013372;28;20069;-77
2021/06/08 06:09:44;;;;;;;1.77;1.52;;;;;;;;;;7039114;28;20040;-77
2021/06/08 06:13:06;;;;;;;2.03;1.83;;;;;;;;;;7035448;28;20109;-77
2021/06/08 06:16:26;;;;;;;1.80;1.60;;;;;;;;;;7017122;28;20055;-77
2021/06/08 06:19:47;;;;;;;2.45;1.60;;;;;;;;;;7035228;28;20093;-76
2021/06/08 06:23:09;;;;;;;1.73;1.63;;;;;;;;;;7017619;28;20071;-77
2021/06/08 06:26:32;;;;;;;2.47;1.63;;;;;;;;;;7021718;28;20040;-77
2021/06/08 06:29:53;;;;;;;3.13;1.95;;;;;;;;;;7027645;28;20132;-76
2021/06/08 06:33:15;;;;;;;2.60;1.58;;;;;;;;;;7042510;28;20044;-77
2021/06/08 06:36:36;;;;;;;1.80;1.70;;;;;;;;;;7033146;28;20051;-77
2021/06/08 06:39:58;;;;;;;1.92;1.70;;;;;;;;;;7049685;28;20455;-77
2021/06/08 06:43:24;;;;;;;1.50;1.40;;;;;;;;;;7015473;28;20048;-77
2021/06/08 06:46:46;;;;;;;3.03;1.70;;;;;;;;;;7014269;28;20052;-77
2021/06/08 06:50:10;;;;;;;1.80;1.60;;;;;;;;;;7034403;28;20321;-76
2021/06/08 06:53:31;;;;;;;3.65;2.00;;;;;;;;;;7039535;28;20054;-77
2021/06/08 06:56:54;;;;;;;2.28;1.75;;;;;;;;;;7026201;28;20044;-78
2021/06/08 07:00:17;;;;;;;1.65;1.55;;;;;;;;;;7016651;28;20044;-76
2021/06/08 07:03:38;;;;;;;4.20;1.83;;;;;;;;;;7013420;28;20039;-75
2021/06/08 07:06:59;;;;;;;3.28;1.88;;;;;;;;;;7033563;28;20044;-76
2021/06/08 07:10:22;;;;;;;2.05;1.70;;;;;;;;;;7021935;28;20059;-76
2021/06/08 07:13:43;;;;;;;3.47;1.73;;;;;;;;;;7018850;28;20044;-77
2021/06/08 07:17:04;;;;;;;3.38;1.80;;;;;;;;;;7038341;28;20098;-76
2021/06/08 07:20:25;;;;;;;2.58;1.50;;;;;;;;;;7034633;28;20040;-77
2021/06/08 07:23:48;;;;;;;3.95;1.65;;;;;;;;;;7036100;28;20044;-77
2021/06/08 07:27:13;;;;;;;7.97;1.70;;;;;;;;;;7036361;28;20086;-77
2021/06/08 07:30:35;;;;;;;2.03;1.67;;;;;;;;;;7034229;28;20058;-77
2021/06/08 07:34:03;;;;;;;4.15;1.63;;;;;;;;;;7033559;28;20048;-77
2021/06/08 07:37:25;;;;;;;4.53;1.52;;;;;;;;;;7034026;28;20074;-77
2021/06/08 07:40:58;;;;;;;1.50;1.40;;;;;;;;;;6996819;28;20044;-77
2021/06/08 07:44:28;;;;;;;2.85;1.50;;;;;;;;;;6998976;28;20143;-77
2021/06/08 07:47:52;;;;;;;3.33;1.60;;;;;;;;;;7015476;28;20056;-77
2021/06/08 07:51:12;;;;;;;3.38;1.98;;;;;;;;;;7030318;28;20058;-77
2021/06/08 07:54:33;;;;;;;6.78;1.60;;;;;;;;;;7026254;28;20060;-77
2021/06/08 07:57:53;;;;;;;5.20;1.48;;;;;;;;;;7014892;28;20044;-77
2021/06/08 08:01:18;;;;;;;4.40;2.03;;;;;;;;;;7029192;28;20101;-79
2021/06/08 08:04:49;;;;;;;3.08;1.80;;;;;;;;;;7032923;28;20044;-77
2021/06/08 08:08:13;;;;;;;5.07;1.63;;;;;;;;;;7033233;28;20047;-77
2021/06/08 08:11:35;;;;;;;3.30;1.73;;;;;;;;;;7014227;28;20066;-77
2021/06/08 08:14:56;;;;;;;4.32;1.48;;;;;;;;;;7022681;28;20543;-78
2021/06/08 08:18:18;;;;;;;1.88;1.30;;;;;;;;;;7008239;28;20052;-77
2021/06/08 08:21:39;;;;;;;1.60;1.50;;;;;;;;;;7032942;28;20044;-77
2021/06/08 08:24:59;;;;;;;5.40;1.90;;;;;;;;;;7014101;28;20383;-78
2021/06/08 08:28:20;;;;;;;1.88;1.75;;;;;;;;;;7035505;28;20129;-78
2021/06/08 08:31:40;;;;;;;2.53;1.35;;;;;;;;;;7032179;28;20538;-77
2021/06/08 08:35:01;;;;;;;3.92;1.85;;;;;;;;;;7034007;28;20048;-78
2021/06/08 08:38:21;;;;;;;2.13;1.70;;;;;;;;;;7025420;28;20052;-79
2021/06/08 08:41:43;;;;;;;3.00;1.98;;;;;;;;;;7019871;28;20487;-77
2021/06/08 08:45:04;;;;;;;1.50;1.40;;;;;;;;;;7027340;28;20135;-79
2021/06/08 08:48:24;;;;;;;2.03;1.83;;;;;;;;;;7027723;28;20047;-79
2021/06/08 08:51:50;;;;;;;2.17;1.60;;;;;;;;;;7032184;28;20062;-79
2021/06/08 08:55:12;;;;;;;6.35;1.42;;;;;;;;;;7007536;28;20055;-79
2021/06/08 08:58:35;;;;;;;1.52;1.33;;;;;;;;;;7021680;28;20054;-79
2021/06/08 09:01:57;;;;;;;3.50;1.40;;;;;;;;;;7008875;28;20036;-79
2021/06/08 09:05:17;;;;;;;1.30;1.20;;;;;;;;;;7028878;28;20056;-79
2021/06/08 09:08:39;;;;;;;2.50;1.80;;;;;;;;;;7029184;28;20067;-80
2021/06/08 09:12:04;;;;;;;5.88;2.05;;;;;;;;;;7028013;28;20040;-80
2021/06/08 09:15:24;;;;;;;2.95;1.90;;;;;;;;;;7002390;28;20044;-77
2021/06/08 09:18:45;;;;;;;6.25;2.30;;;;;;;;;;7029954;28;20063;-77
2021/06/08 09:22:05;;;;;;;6.07;2.10;;;;;;;;;;7026466;28;20387;-78
2021/06/08 09:25:35;;;;;;;5.07;1.70;;;;;;;;;;7004704;28;20131;-77
2021/06/08 09:28:56;;;;;;;3.28;1.75;;;;;;;;;;7007810;28;20142;-77
2021/06/08 09:32:24;;;;;;;4.05;1.90;;;;;;;;;;7018618;28;20036;-78
2021/06/08 09:35:52;;;;;;;2.75;1.75;;;;;;;;;;7023309;28;20052;-76
2021/06/08 09:39:19;;;;;;;3.53;1.90;;;;;;;;;;7026620;28;20406;-78
2021/06/08 09:42:40;;;;;;;2.80;1.88;;;;;;;;;;7037315;28;20035;-78
2021/06/08 09:46:01;;;;;;;8.68;1.77;;;;;;;;;;7033621;28;20043;-78
2021/06/08 09:49:30;;;;;;;3.60;2.33;;;;;;;;;;7025213;28;20529;-78
2021/06/08 09:52:51;;;;;;;2.38;2.00;;;;;;;;;;7032617;28;20097;-78
2021/06/08 09:56:13;;;;;;;2.05;1.63;;;;;;;;;;7023406;28;20056;-79
2021/06/08 09:59:43;;;;;;;3.63;1.90;;;;;;;;;;7045178;28;20378;-78
2021/06/08 10:03:04;;;;;;;3.53;2.00;;;;;;;;;;7036552;28;20436;-77
2021/06/08 10:06:36;;;;;;;2.08;1.58;;;;;;;;;;7035385;28;20522;-78
2021/06/08 10:10:14;;;;;;;3.38;2.00;;;;;;;;;;7010144;28;20047;-80
2021/06/08 10:13:34;;;;;;;4.13;2.10;;;;;;;;;;7035796;28;20072;-78
2021/06/08 10:16:59;;;;;;;5.60;2.40;;;;;;;;;;7035031;28;20043;-78
2021/06/08 10:20:24;;;;;;;4.78;1.95;;;;;;;;;;7043890;28;20059;-79
2021/06/08 10:23:45;;;;;;;3.95;1.83;;;;;;;;;;7034374;28;20169;-81
2021/06/08 10:27:05;;;;;;;5.97;2.47;;;;;;;;;;7016492;28;20047;-76
2021/06/08 10:30:26;;;;;;;3.08;2.30;;;;;;;;;;7042111;28;20506;-81
2021/06/08 10:33:47;;;;;;;3.90;2.50;;;;;;;;;;7017791;28;20052;-78
2021/06/08 10:37:08;;;;;;;3.20;2.60;;;;;;;;;;7034910;28;20040;-77
2021/06/08 10:40:28;;;;;;;3.58;2.30;;;;;;;;;;7035267;28;20048;-78
2021/06/08 10:43:49;;;;;;;4.80;2.58;;;;;;;;;;7053581;28;20054;-78
2021/06/08 10:47:37;;;;;;;2.90;2.42;;;;;;;;;;7037942;28;20044;-79
2021/06/08 10:51:15;;;;;;;5.05;2.22;;;;;;;;;;7017958;28;20077;-78
2021/06/08 10:54:39;;;;;;;4.13;2.30;;;;;;;;;;7033562;28;20048;-78
2021/06/08 10:58:00;;;;;;;7.95;2.97;;;;;;;;;;7034922;28;20048;-78
2021/06/08 11:01:40;;;;;;;8.48;3.63;;;;;;;;;;7040951;28;20534;-78
2021/06/08 11:05:01;;;;;;;6.05;4.20;;;;;;;;;;7024160;28;20060;-77
2021/06/08 11:09:01;;;;;;;7.60;4.22;;;;;;;;;;7035671;28;20062;-78
2021/06/08 11:12:24;;;;;;;6.95;4.00;;;;;;;;;;7023392;28;20044;-77
2021/06/08 11:15:50;;;;;;;5.15;4.10;;;;;;;;;;7025371;28;20548;-76
2021/06/08 11:19:12;;;;;;;5.72;4.20;;;;;;;;;;7028263;28;20040;-76
2021/06/08 11:22:33;;;;;;;6.75;4.10;;;;;;;;;;7034899;28;20105;-77
2021/06/08 11:25:54;;;;;;;5.70;4.00;;;;;;;;;;7033516;28;20048;-77
2021/06/08 11:29:41;;;;;;;4.88;4.00;;;;;;;;;;7035937;28;20056;-77
2021/06/08 11:33:06;;;;;;;6.45;3.90;;;;;;;;;;7023190;28;20058;-76
2021/06/08 11:36:28;;;;;;;8.45;4.30;;;;;;;;;;7032032;28;20079;-77
2021/06/08 11:39:48;;;;;;;7.47;3.67;;;;;;;;;;7026679;28;20052;-77
2021/06/08 11:43:11;;;;;;;4.75;3.40;;;;;;;;;;7034306;28;20097;-76
2021/06/08 11:46:52;;;;;;;4.43;3.67;;;;;;;;;;7044443;28;20044;-76
2021/06/08 11:50:13;;;;;;;3.90;3.25;;;;;;;;;;7038837;28;20087;-78
2021/06/08 11:53:55;;;;;;;4.78;3.22;;;;;;;;;;7030891;28;20037;-77
2021/06/08 11:57:42;;;;;;;5.13;3.25;;;;;;;;;;7035606;28;20135;-76
2021/06/08 12:01:06;;;;;;;4.65;3.10;;;;;;;;;;7036059;28;20487;-77
2021/06/08 12:04:29;;;;;;;9.90;3.70;;;;;;;;;;7016579;28;20048;-77
2021/06/08 12:07:53;;;;;;;7.65;3.50;;;;;;;;;;7039688;28;20135;-77
2021/06/08 12:11:17;;;;;;;7.88;3.88;;;;;;;;;;7031255;28;20475;-76
2021/06/08 12:14:47;;;;;;;4.97;3.42;;;;;;;;;;7032394;28;20396;-77
2021/06/08 12:18:08;;;;;;;4.07;3.00;;;;;;;;;;7031965;28;20093;-77
2021/06/08 12:21:31;;;;;;;13.95;4.05;;;;;;;;;;7038999;28;20109;-77
2021/06/08 12:24:57;;;;;;;15.05;4.18;;;;;;;;;;7000270;28;20448;-76
2021/06/08 12:28:17;;;;;;;12.75;4.13;;;;;;;;;;7026926;28;20055;-77
2021/06/08 12:31:38;;;;;;;11.60;3.75;;;;;;;;;;7030492;28;20080;-77
2021/06/08 12:34:58;;;;;;;14.63;3.95;;;;;;;;;;7021020;28;20044;-76
2021/06/08 12:38:22;;;;;;;10.70;3.90;;;;;;;;;;7018328;28;20052;-76
2021/06/08 12:41:43;;;;;;;5.03;3.70;;;;;;;;;;7028362;28;20117;-77
2021/06/08 12:45:04;;;;;;;14.25;4.00;;;;;;;;;;7024329;28;20130;-77
2021/06/08 12:48:25;;;;;;;9.10;4.03;;;;;;;;;;7027716;28;20067;-77
2021/06/08 12:51:57;;;;;;;14.18;4.25;;;;;;;;;;7026359;28;21133;-77
2021/06/08 12:55:17;;;;;;;13.27;4.05;;;;;;;;;;7027852;28;20050;-78
2021/06/08 12:58:38;;;;;;;13.70;4.00;;;;;;;;;;7027721;28;20044;-78
2021/06/08 13:02:01;;;;;;;10.20;3.80;;;;;;;;;;7012549;28;20440;-77
2021/06/08 13:05:26;;;;;;;12.77;3.95;;;;;;;;;;7001174;28;20151;-76
2021/06/08 13:08:48;;;;;;;7.82;3.83;;;;;;;;;;7013285;28;20044;-77
2021/06/08 13:12:11;;;;;;;11.13;3.95;;;;;;;;;;7016885;28;20059;-77
2021/06/08 13:15:34;;;;;;;13.18;3.85;;;;;;;;;;6990694;28;20052;-77
2021/06/08 13:18:55;;;;;;;10.15;3.50;;;;;;;;;;6998491;28;20389;-79
2021/06/08 13:22:18;;;;;;;7.57;3.40;;;;;;;;;;7029259;28;20052;-78
2021/06/08 13:25:39;;;;;;;10.25;3.35;;;;;;;;;;7139602;23;20052;-79
2021/06/08 13:29:12;;;;;;;8.57;3.75;;;;;;;;;;6997595;28;20107;-78
2021/06/08 13:32:34;;;;;;;11.80;3.60;;;;;;;;;;6983496;28;20512;-78
2021/06/08 13:35:54;;;;;;;9.13;3.88;;;;;;;;;;7015833;28;20056;-79
2021/06/08 13:39:19;;;;;;;6.88;3.05;;;;;;;;;;7019076;28;20066;-79
2021/06/08 13:42:40;;;;;;;6.47;3.67;;;;;;;;;;7017856;28;20044;-77
2021/06/08 13:46:13;;;;;;;13.48;4.60;;;;;;;;;;7015939;28;20060;-79
2021/06/08 13:49:41;;;;;;;10.30;3.80;;;;;;;;;;7004122;28;20499;-78
2021/06/08 13:53:04;;;;;;;6.80;3.40;;;;;;;;;;7016785;28;20056;-80
2021/06/08 13:56:32;;;;;;;9.80;3.83;;;;;;;;;;7016848;28;20089;-78
2021/06/08 14:03:35;;;;;;;6.63;3.55;;;;;;;;;;7010540;28;20425;-78
2021/06/08 14:06:57;;;;;;;5.18;3.70;;;;;;;;;;6999905;28;20441;-78
2021/06/08 14:10:19;;;;;;;7.85;3.75;;;;;;;;;;6991142;28;20048;-80
2021/06/08 14:13:42;;;;;;;6.53;3.55;;;;;;;;;;7017089;28;20051;-80
2021/06/08 14:17:09;;;;;;;8.52;3.85;;;;;;;;;;7018949;28;20176;-80
2021/06/08 14:20:30;;;;;;;7.88;3.40;;;;;;;;;;7009115;28;20059;-79
2021/06/08 14:23:55;;;;;;;6.70;3.60;;;;;;;;;;7019862;28;20410;-79
2021/06/08 14:27:18;;;;;;;15.30;4.13;;;;;;;;;;6986742;28;20040;-81
2021/06/08 14:30:39;;;;;;;8.98;3.67;;;;;;;;;;7020343;28;20086;-80
2021/06/08 14:34:00;;;;;;;6.90;3.78;;;;;;;;;;7008448;28;20080;-81
2021/06/08 14:37:20;;;;;;;11.77;4.13;;;;;;;;;;7020281;28;20043;-81
2021/06/08 14:40:41;;;;;;;7.53;4.43;;;;;;;;;;7000043;28;20101;-80
2021/06/08 14:44:02;;;;;;;8.18;3.83;;;;;;;;;;7022213;28;20197;-81
2021/06/08 14:47:22;;;;;;;9.23;3.97;;;;;;;;;;7014865;28;20075;-79
2021/06/08 14:50:43;;;;;;;7.38;4.07;;;;;;;;;;7023831;28;20090;-79
2021/06/08 14:54:03;;;;;;;11.65;4.70;;;;;;;;;;7007322;28;20044;-80
2021/06/08 14:57:24;;;;;;;11.82;4.40;;;;;;;;;;7017541;28;20032;-80
2021/06/08 15:00:45;;;;;;;14.93;4.00;;;;;;;;;;6997552;28;20033;-80
2021/06/08 15:04:05;;;;;;;7.97;3.80;;;;;;;;;;7010357;28;20479;-81
2021/06/08 15:07:25;;;;;;;10.27;4.18;;;;;;;;;;7014104;28;20434;-80
2021/06/08 15:10:46;;;;;;;4.88;3.92;;;;;;;;;;7012502;28;20381;-80
2021/06/08 15:14:06;;;;;;;8.85;4.57;;;;;;;;;;7010767;28;20518;-79
2021/06/08 15:17:27;;;;;;;6.72;3.95;;;;;;;;;;7017495;28;20048;-78
2021/06/08 15:20:47;;;;;;;9.20;4.28;;;;;;;;;;7026916;28;20044;-79
2021/06/08 15:24:08;;;;;;;6.75;4.13;;;;;;;;;;7026502;28;20060;-79
2021/06/08 15:27:30;;;;;;;7.30;3.80;;;;;;;;;;7025511;28;20044;-79
2021/06/08 15:30:50;;;;;;;8.05;4.00;;;;;;;;;;7011903;28;20043;-78
2021/06/08 15:34:11;;;;;;;5.60;4.35;;;;;;;;;;7025503;28;20066;-80
2021/06/08 15:37:32;;;;;;;13.73;4.05;;;;;;;;;;6997392;28;20066;-81
2021/06/08 15:40:52;;;;;;;8.07;3.90;;;;;;;;;;7015542;28;20118;-80
2021/06/08 15:44:12;;;;;;;8.20;4.10;;;;;;;;;;7025382;28;20139;-79
2021/06/08 15:47:33;;;;;;;10.55;4.10;;;;;;;;;;7025233;28;20509;-80
2021/06/08 15:50:53;;;;;;;8.05;4.00;;;;;;;;;;7025634;28;20101;-78
2021/06/08 15:54:14;;;;;;;8.48;3.58;;;;;;;;;;7025099;28;20383;-79
2021/06/08 15:57:35;;;;;;;6.00;3.92;;;;;;;;;;7017971;28;20046;-81
2021/06/08 16:00:55;;;;;;;8.68;4.05;;;;;;;;;;7004999;28;20048;-81
2021/06/08 16:04:16;;;;;;;10.65;4.28;;;;;;;;;;7007108;28;20510;-80
2021/06/08 16:07:36;;;;;;;15.18;4.90;;;;;;;;;;6987796;28;20040;-81
2021/06/08 16:10:57;;;;;;;8.90;3.58;;;;;;;;;;7004913;28;20039;-81
2021/06/08 16:14:17;;;;;;;7.95;3.90;;;;;;;;;;7024454;28;20505;-81
2021/06/08 16:17:38;;;;;;;12.63;4.15;;;;;;;;;;7024765;28;20131;-80
2021/06/08 16:20:58;;;;;;;7.13;4.20;;;;;;;;;;7020460;28;20040;-84
2021/06/08 16:24:19;;;;;;;8.45;3.85;;;;;;;;;;7018074;28;20395;-79
2021/06/08 16:27:39;;;;;;;11.82;3.65;;;;;;;;;;7012193;28;20051;-79
2021/06/08 16:31:00;;;;;;;8.32;4.00;;;;;;;;;;7004259;28;20055;-79
2021/06/08 16:34:21;;;;;;;6.53;3.42;;;;;;;;;;6986588;28;20050;-79
2021/06/08 16:37:43;;;;;;;4.88;3.70;;;;;;;;;;7009696;28;20132;-79
2021/06/08 16:41:04;;;;;;;4.93;3.67;;;;;;;;;;7000633;28;20094;-79
2021/06/08 16:44:26;;;;;;;3.72;3.30;;;;;;;;;;7024007;28;20075;-79
2021/06/08 16:47:46;;;;;;;9.60;3.90;;;;;;;;;;7024298;28;20050;-79
2021/06/08 16:54:28;;;;;;;4.43;3.60;;;;;;;;;;7004605;28;20079;-79
2021/06/08 16:57:50;;;;;;;5.80;3.80;;;;;;;;;;7018529;28;20051;-79
2021/06/08 17:01:10;;;;;;;5.10;3.60;;;;;;;;;;7018658;28;20094;-79
2021/06/08 17:04:31;;;;;;;5.55;3.30;;;;;;;;;;7017755;28;20419;-79
2021/06/08 17:07:51;;;;;;;4.28;3.50;;;;;;;;;;7023562;28;20989;-78
2021/06/08 17:11:13;;;;;;;6.85;3.17;;;;;;;;;;7010048;28;20039;-79
2021/06/08 17:14:33;;;;;;;5.28;3.47;;;;;;;;;;7023757;28;20047;-79
2021/06/08 17:17:54;;;;;;;5.93;3.35;;;;;;;;;;7023608;28;20043;-78
2021/06/08 17:21:14;;;;;;;5.90;3.53;;;;;;;;;;7024075;28;20044;-78
2021/06/08 17:24:35;;;;;;;5.20;3.40;;;;;;;;;;7023970;28;20375;-79
2021/06/08 17:27:55;;;;;;;6.63;3.40;;;;;;;;;;7023694;28;20130;-79
2021/06/08 17:31:16;;;;;;;7.50;3.58;;;;;;;;;;7023866;28;20040;-78
2021/06/08 17:34:36;;;;;;;9.95;3.28;;;;;;;;;;7023605;28;20505;-79
2021/06/08 17:37:59;;;;;;;4.20;3.10;;;;;;;;;;7023158;28;20054;-79
2021/06/08 17:41:20;;;;;;;5.80;3.10;;;;;;;;;;7023645;28;20048;-78
2021/06/08 17:44:41;;;;;;;4.63;3.35;;;;;;;;;;7023380;28;20075;-79
2021/06/08 17:48:01;;;;;;;6.13;3.28;;;;;;;;;;7023291;28;20444;-78
2021/06/08 17:51:22;;;;;;;5.53;3.38;;;;;;;;;;7023499;28;20117;-79
2021/06/08 17:54:42;;;;;;;5.20;3.35;;;;;;;;;;7023472;28;20559;-79
2021/06/08 17:58:03;;;;;;;4.60;3.05;;;;;;;;;;7023033;28;20487;-79
2021/06/08 18:01:24;;;;;;;6.63;3.20;;;;;;;;;;7020962;28;20044;-79
2021/06/08 18:04:44;;;;;;;3.67;3.38;;;;;;;;;;7021467;28;20047;-78
2021/06/08 18:08:07;;;;;;;3.28;2.70;;;;;;;;;;7012922;28;20048;-79
2021/06/08 18:11:28;;;;;;;4.32;3.38;;;;;;;;;;7010580;28;20093;-79
2021/06/08 18:14:48;;;;;;;7.85;3.13;;;;;;;;;;7027846;28;20060;-79
2021/06/08 18:18:12;;;;;;;4.07;3.38;;;;;;;;;;7026325;28;20649;-78
2021/06/08 18:21:35;;;;;;;3.50;2.95;;;;;;;;;;7026290;28;20055;-79
2021/06/08 18:24:58;;;;;;;4.22;2.95;;;;;;;;;;7027115;28;20040;-79
2021/06/08 18:28:18;;;;;;;5.18;2.97;;;;;;;;;;7027418;28;20059;-79
2021/06/08 18:31:39;;;;;;;3.25;2.83;;;;;;;;;;7027542;28;20063;-79
2021/06/08 18:35:00;;;;;;;4.18;3.22;;;;;;;;;;7026844;28;20048;-79
2021/06/08 18:38:21;;;;;;;4.25;3.25;;;;;;;;;;7027151;28;20048;-78
2021/06/08 18:41:42;;;;;;;4.43;2.95;;;;;;;;;;7026906;28;20044;-79
2021/06/08 18:45:03;;;;;;;21.50;2.90;;;;;;;;;;7027057;28;20140;-78
2021/06/08 18:48:23;;;;;;;3.53;3.22;;;;;;;;;;7026481;28;20044;-79
2021/06/08 18:51:44;;;;;;;3.00;2.80;;;;;;;;;;7027093;28;20047;-79
2021/06/08 18:55:06;;;;;;;4.82;3.17;;;;;;;;;;7026999;28;20072;-79
2021/06/08 18:58:26;;;;;;;6.15;3.03;;;;;;;;;;7005444;28;20143;-78
2021/06/08 19:01:51;;;;;;;4.72;2.90;;;;;;;;;;7012307;28;20048;-79
2021/06/08 19:05:11;;;;;;;4.57;3.13;;;;;;;;;;7027254;28;20499;-78
2021/06/08 19:08:32;;;;;;;5.25;2.80;;;;;;;;;;7026439;28;20047;-79
2021/06/08 19:11:53;;;;;;;6.03;2.95;;;;;;;;;;7019532;28;20097;-79
2021/06/08 19:15:14;;;;;;;5.00;3.03;;;;;;;;;;7024639;28;20048;-78
2021/06/08 19:18:35;;;;;;;3.13;2.42;;;;;;;;;;7007690;28;20097;-79
2021/06/08 19:21:55;;;;;;;6.88;2.70;;;;;;;;;;7021411;28;20048;-79
2021/06/08 19:25:16;;;;;;;3.40;2.95;;;;;;;;;;7015601;28;20387;-80
2021/06/08 19:28:37;;;;;;;5.00;2.90;;;;;;;;;;7016597;28;20060;-79
2021/06/08 19:31:57;;;;;;;4.28;2.70;;;;;;;;;;7018544;28;20052;-79
2021/06/08 19:35:18;;;;;;;4.03;2.85;;;;;;;;;;6996203;28;20139;-78
2021/06/08 19:38:38;;;;;;;8.70;3.17;;;;;;;;;;7019982;28;20067;-79
2021/06/08 19:41:59;;;;;;;6.32;3.13;;;;;;;;;;7025172;28;20382;-79
2021/06/08 19:45:19;;;;;;;4.53;3.17;;;;;;;;;;7016730;28;20102;-79
2021/06/08 19:48:40;;;;;;;4.57;3.40;;;;;;;;;;7012904;28;20048;-79
2021/06/08 19:52:00;;;;;;;3.72;3.00;;;;;;;;;;6997044;28;20526;-79
2021/06/08 19:55:23;;;;;;;4.57;3.08;;;;;;;;;;7018910;28;20079;-79
2021/06/08 19:58:44;;;;;;;4.80;3.20;;;;;;;;;;7018538;28;20040;-79
2021/06/08 20:02:04;;;;;;;6.13;3.47;;;;;;;;;;7014826;28;20090;-79
2021/06/08 20:05:25;;;;;;;3.97;3.28;;;;;;;;;;7019522;28;20131;-78
2021/06/08 20:08:45;;;;;;;4.18;3.10;;;;;;;;;;7014506;28;20069;-79
2021/06/08 20:12:08;;;;;;;5.03;3.28;;;;;;;;;;7006967;28;20134;-79
2021/06/08 20:15:28;;;;;;;4.72;3.47;;;;;;;;;;7023096;28;20044;-79
2021/06/08 20:18:49;;;;;;;6.90;3.33;;;;;;;;;;7022687;28;20134;-79